createdAt,value
2022-09-25T00:01:16.289Z,13.43
2022-09-25T00:03:44.121Z,12.75
2022-09-25T00:06:23.334Z,13.43
2022-09-25T00:08:51.337Z,15.07
2022-09-25T00:11:26.309Z,12.18
2022-09-25T00:13:55.467Z,12.32
2022-09-25T00:16:26.246Z,12.00
2022-09-25T00:19:12.592Z,16.23
2022-09-25T00:21:40.286Z,13.35
2022-09-25T00:24:09.821Z,13.88
2022-09-25T00:26:39.915Z,11.75
2022-09-25T00:29:09.033Z,12.70
2022-09-25T00:31:36.587Z,14.32
2022-09-25T00:34:05.435Z,12.20
2022-09-25T00:36:33.504Z,17.02
2022-09-25T00:39:01.345Z,12.50
2022-09-25T00:41:32.102Z,16.05
2022-09-25T00:44:02.713Z,14.07
2022-09-25T00:46:43.995Z,15.13
2022-09-25T00:49:18.086Z,12.32
2022-09-25T00:52:00.055Z,15.70
2022-09-25T00:54:40.764Z,13.95
2022-09-25T00:57:11.318Z,13.52
2022-09-25T00:59:43.025Z,11.68
2022-09-25T01:02:14.643Z,12.75
2022-09-25T01:04:46.179Z,13.07
2022-09-25T01:07:14.932Z,14.00
2022-09-25T01:09:43.888Z,12.25
2022-09-25T01:12:11.260Z,11.95
2022-09-25T01:14:39.611Z,10.75
2022-09-25T01:17:12.445Z,10.45
2022-09-25T01:19:55.919Z,11.93
2022-09-25T01:22:35.623Z,11.30
2022-09-25T01:25:05.977Z,15.95
2022-09-25T01:28:13.653Z,11.20
2022-09-25T01:30:45.040Z,11.02
2022-09-25T01:33:21.766Z,12.88
2022-09-25T01:35:53.217Z,12.77
2022-09-25T01:38:34.803Z,12.15
2022-09-25T01:41:02.198Z,10.20
2022-09-25T01:43:39.879Z,11.55
2022-09-25T01:46:14.104Z,10.00
2022-09-25T01:48:43.253Z,14.48
2022-09-25T01:51:32.402Z,11.38
2022-09-25T01:54:05.541Z,9.80
2022-09-25T01:57:02.307Z,11.68
2022-09-25T01:59:51.634Z,10.38
2022-09-25T02:02:22.947Z,10.90
2022-09-25T02:04:57.897Z,10.65
2022-09-25T02:07:30.839Z,10.70
2022-09-25T02:10:04.985Z,11.93
2022-09-25T02:12:37.406Z,9.73
2022-09-25T02:15:09.745Z,13.00
2022-09-25T02:18:11.973Z,11.18
2022-09-25T02:20:42.293Z,12.18
2022-09-25T02:23:38.915Z,11.25
2022-09-25T02:26:09.170Z,10.38
2022-09-25T02:28:36.676Z,11.98
2022-09-25T02:31:07.171Z,9.07
2022-09-25T02:33:35.332Z,13.30
2022-09-25T02:36:04.655Z,11.35
2022-09-25T02:38:33.733Z,11.35
2022-09-25T02:41:11.111Z,12.73
2022-09-25T02:44:04.653Z,12.63
2022-09-25T02:46:41.631Z,9.73
2022-09-25T02:49:33.428Z,9.43
2022-09-25T02:52:01.255Z,9.45
2022-09-25T02:54:32.825Z,12.77
2022-09-25T02:57:06.464Z,13.15
2022-09-25T02:59:41.997Z,11.00
2022-09-25T03:02:11.840Z,8.27
2022-09-25T03:04:40.344Z,10.95
2022-09-25T03:07:08.067Z,12.05
2022-09-25T03:09:38.738Z,10.02
2022-09-25T03:12:06.765Z,11.77
2022-09-25T03:14:34.269Z,12.35
2022-09-25T03:17:04.737Z,12.07
2022-09-25T03:19:34.863Z,12.35
2022-09-25T03:22:02.982Z,12.30
2022-09-25T03:24:31.415Z,14.05
2022-09-25T03:26:59.493Z,13.57
2022-09-25T03:29:26.988Z,12.20
2022-09-25T03:31:54.400Z,13.02
2022-09-25T03:34:22.831Z,11.18
2022-09-25T03:36:50.286Z,11.38
2022-09-25T03:39:20.823Z,11.18
2022-09-25T03:41:48.443Z,10.77
2022-09-25T03:44:15.853Z,12.18
2022-09-25T03:46:43.318Z,12.90
2022-09-25T03:49:11.231Z,10.77
2022-09-25T03:51:39.056Z,10.38
2022-09-25T03:54:06.637Z,13.02
2022-09-25T03:56:34.549Z,12.85
2022-09-25T03:59:01.919Z,12.25
2022-09-25T04:01:29.672Z,11.85
2022-09-25T04:03:57.835Z,11.12
2022-09-25T04:06:26.415Z,12.15
2022-09-25T04:08:54.387Z,12.50
2022-09-25T04:11:24.115Z,11.07
2022-09-25T04:13:52.770Z,12.93
2022-09-25T04:16:21.205Z,11.82
2022-09-25T04:18:51.294Z,12.35
2022-09-25T04:21:18.897Z,11.15
2022-09-25T04:24:04.768Z,14.20
2022-09-25T04:26:32.567Z,16.55
2022-09-25T04:29:01.693Z,14.75
2022-09-25T04:31:30.081Z,22.37
2022-09-25T04:33:58.104Z,14.77
2022-09-25T04:36:25.635Z,18.05
2022-09-25T04:38:52.977Z,16.87
2022-09-25T04:41:20.699Z,15.00
2022-09-25T04:43:48.378Z,16.62
2022-09-25T04:46:21.518Z,16.95
2022-09-25T04:48:50.318Z,18.15
2022-09-25T04:51:17.992Z,18.52
2022-09-25T04:53:46.107Z,15.23
2022-09-25T04:56:15.792Z,14.87
2022-09-25T04:58:46.228Z,27.73
2022-09-25T05:01:14.078Z,21.40
2022-09-25T05:03:41.605Z,18.67
2022-09-25T05:06:09.255Z,14.98
2022-09-25T05:08:36.897Z,14.15
2022-09-25T05:11:04.263Z,11.35
2022-09-25T05:13:31.623Z,12.00
2022-09-25T05:15:59.353Z,13.62
2022-09-25T05:18:26.889Z,12.02
2022-09-25T05:20:54.479Z,11.18
2022-09-25T05:23:23.408Z,11.70
2022-09-25T05:25:55.431Z,10.38
2022-09-25T05:28:23.657Z,10.05
2022-09-25T05:30:51.580Z,10.98
2022-09-25T05:33:19.272Z,12.60
2022-09-25T05:35:48.490Z,10.95
2022-09-25T05:38:15.945Z,10.82
2022-09-25T05:40:43.438Z,11.43
2022-09-25T05:43:12.559Z,11.40
2022-09-25T05:45:39.950Z,12.45
2022-09-25T05:48:08.358Z,10.15
2022-09-25T05:50:36.491Z,14.43
2022-09-25T05:53:05.175Z,10.80
2022-09-25T05:55:32.722Z,13.20
2022-09-25T05:58:02.734Z,15.27
2022-09-25T06:00:33.006Z,13.30
2022-09-25T06:03:01.967Z,11.45
2022-09-25T06:05:30.267Z,14.98
2022-09-25T06:07:57.666Z,13.55
2022-09-25T06:10:28.421Z,13.27
2022-09-25T06:13:00.142Z,14.40
2022-09-25T06:15:29.037Z,12.65
2022-09-25T06:17:56.597Z,17.90
2022-09-25T06:20:25.018Z,18.65
2022-09-25T06:22:54.341Z,17.30
2022-09-25T06:25:23.915Z,13.68
2022-09-25T06:28:00.391Z,14.52
2022-09-25T06:30:36.640Z,13.70
2022-09-25T06:33:10.896Z,11.57
2022-09-25T06:35:47.225Z,13.02
2022-09-25T06:38:15.607Z,12.63
2022-09-25T06:40:43.788Z,14.95
2022-09-25T06:43:12.977Z,13.07
2022-09-25T06:45:40.560Z,13.85
2022-09-25T06:48:16.358Z,13.05
2022-09-25T06:50:49.070Z,14.73
2022-09-25T06:53:18.298Z,13.75
2022-09-25T06:55:45.975Z,11.90
2022-09-25T06:58:19.588Z,15.05
2022-09-25T07:00:48.393Z,24.15
2022-09-25T07:03:34.648Z,18.08
2022-09-25T07:06:03.843Z,18.60
2022-09-25T07:08:31.454Z,14.10
2022-09-25T07:10:59.391Z,12.98
2022-09-25T07:13:29.999Z,15.23
2022-09-25T07:16:07.315Z,13.35
2022-09-25T07:18:34.998Z,16.12
2022-09-25T07:21:07.847Z,15.43
2022-09-25T07:23:36.247Z,22.08
2022-09-25T07:26:09.122Z,13.57
2022-09-25T07:28:37.789Z,14.35
2022-09-25T07:31:15.530Z,15.30
2022-09-25T07:33:43.309Z,13.82
2022-09-25T07:36:12.045Z,16.75
2022-09-25T07:38:40.055Z,15.85
2022-09-25T07:41:11.220Z,16.52
2022-09-25T07:43:38.829Z,15.70
2022-09-25T07:46:06.975Z,13.10
2022-09-25T07:48:35.016Z,15.90
2022-09-25T07:51:07.693Z,13.05
2022-09-25T07:53:35.323Z,13.90
2022-09-25T07:56:06.600Z,11.50
2022-09-25T07:58:35.721Z,11.30
2022-09-25T08:01:05.865Z,11.98
2022-09-25T08:03:34.150Z,14.00
2022-09-25T08:06:11.783Z,11.07
2022-09-25T08:08:40.789Z,8.55
2022-09-25T08:11:14.041Z,6.62
2022-09-25T08:13:41.933Z,6.75
2022-09-25T08:16:13.596Z,6.45
2022-09-25T08:18:42.615Z,8.35
2022-09-25T08:21:14.308Z,5.28
2022-09-25T08:23:47.740Z,6.03
2022-09-25T08:26:16.679Z,7.60
2022-09-25T08:28:44.503Z,6.03
2022-09-25T08:31:14.646Z,7.35
2022-09-25T08:33:46.883Z,8.25
2022-09-25T08:36:14.593Z,8.10
2022-09-25T08:38:42.371Z,7.60
2022-09-25T08:41:18.888Z,7.10
2022-09-25T08:44:09.505Z,4.90
2022-09-25T08:46:58.630Z,5.82
2022-09-25T08:49:29.898Z,5.05
2022-09-25T08:52:02.585Z,4.60
2022-09-25T08:54:32.098Z,6.15
2022-09-25T08:57:06.992Z,4.07
2022-09-25T08:59:35.812Z,5.28
2022-09-25T09:02:11.651Z,5.57
2022-09-25T09:04:47.111Z,5.32
2022-09-25T09:07:34.554Z,8.07
2022-09-25T09:10:34.580Z,4.65
2022-09-25T09:13:11.350Z,3.75
2022-09-25T09:16:00.933Z,3.37
2022-09-25T09:18:30.507Z,3.40
2022-09-25T09:21:22.647Z,8.27
2022-09-25T09:24:06.287Z,4.20
2022-09-25T09:26:52.172Z,4.30
2022-09-25T09:29:28.285Z,4.68
2022-09-25T09:32:11.267Z,4.62
2022-09-25T09:35:07.301Z,4.18
2022-09-25T09:37:46.396Z,5.55
2022-09-25T09:40:43.307Z,4.32
2022-09-25T09:43:44.398Z,6.22
2022-09-25T09:46:22.684Z,5.62
2022-09-25T09:49:11.018Z,8.50
2022-09-25T09:51:38.486Z,7.03
2022-09-25T09:54:16.340Z,7.95
2022-09-25T09:56:46.426Z,9.93
2022-09-25T09:59:22.648Z,6.00
2022-09-25T10:02:00.334Z,6.47
2022-09-25T10:04:34.113Z,8.20
2022-09-25T10:07:05.411Z,5.80
2022-09-25T10:09:33.250Z,5.40
2022-09-25T10:12:08.296Z,8.23
2022-09-25T10:14:42.520Z,6.35
2022-09-25T10:17:13.562Z,5.97
2022-09-25T10:20:02.127Z,5.65
2022-09-25T10:22:36.901Z,5.62
2022-09-25T10:25:06.744Z,4.85
2022-09-25T10:27:36.900Z,5.65
2022-09-25T10:30:22.892Z,5.03
2022-09-25T10:33:14.399Z,5.95
2022-09-25T10:35:45.981Z,5.97
2022-09-25T10:38:48.430Z,7.47
2022-09-25T10:41:22.472Z,4.85
2022-09-25T10:43:52.911Z,8.35
2022-09-25T10:46:48.508Z,8.40
2022-09-25T10:49:45.462Z,6.40
2022-09-25T10:52:15.391Z,5.25
2022-09-25T10:54:45.678Z,6.18
2022-09-25T10:57:34.240Z,6.85
2022-09-25T11:00:19.459Z,6.35
2022-09-25T11:02:48.438Z,4.12
2022-09-25T11:05:21.352Z,4.90
2022-09-25T11:07:58.950Z,3.78
2022-09-25T11:10:42.754Z,5.20
2022-09-25T11:13:21.184Z,3.97
2022-09-25T11:15:53.952Z,4.87
2022-09-25T11:18:38.717Z,6.18
2022-09-25T11:21:26.095Z,4.55
2022-09-25T11:24:04.725Z,7.35
2022-09-25T11:26:42.489Z,6.15
2022-09-25T11:29:39.379Z,4.20
2022-09-25T11:32:32.654Z,4.43
2022-09-25T11:35:30.079Z,4.62
2022-09-25T11:38:09.730Z,4.55
2022-09-25T11:41:14.780Z,4.57
2022-09-25T11:43:58.349Z,3.83
2022-09-25T11:47:06.626Z,4.65
2022-09-25T11:49:36.782Z,4.28
2022-09-25T11:52:29.543Z,5.70
2022-09-25T11:54:59.916Z,5.37
2022-09-25T11:57:36.621Z,5.82
2022-09-25T12:00:28.613Z,3.95
2022-09-25T12:03:09.510Z,5.87
2022-09-25T12:06:05.569Z,4.72
2022-09-25T12:08:54.634Z,6.45
2022-09-25T12:11:32.053Z,5.55
2022-09-25T12:14:26.926Z,3.65
2022-09-25T12:17:23.855Z,3.83
2022-09-25T12:20:02.911Z,4.03
2022-09-25T12:23:03.906Z,5.80
2022-09-25T12:25:48.151Z,5.85
2022-09-25T12:28:23.289Z,5.47
2022-09-25T12:31:06.650Z,5.57
2022-09-25T12:33:59.571Z,6.82
2022-09-25T12:36:41.956Z,6.05
2022-09-25T12:39:30.007Z,8.07
2022-09-25T12:42:07.526Z,6.55
2022-09-25T12:44:50.243Z,6.07
2022-09-25T12:47:46.512Z,7.65
2022-09-25T12:50:16.983Z,6.15
2022-09-25T12:52:52.544Z,7.85
2022-09-25T12:55:26.253Z,7.22
2022-09-25T12:58:10.971Z,7.65
2022-09-25T13:00:42.223Z,7.00
2022-09-25T13:03:17.705Z,7.28
2022-09-25T13:05:55.008Z,6.87
2022-09-25T13:08:39.718Z,6.05
2022-09-25T13:11:10.979Z,8.45
2022-09-25T13:13:53.741Z,7.30
2022-09-25T13:16:22.298Z,6.57
2022-09-25T13:19:11.384Z,7.55
2022-09-25T13:21:42.326Z,7.12
2022-09-25T13:24:14.499Z,7.12
2022-09-25T13:26:52.766Z,9.35
2022-09-25T13:29:35.053Z,7.20
2022-09-25T13:32:18.989Z,7.50
2022-09-25T13:34:47.244Z,7.03
2022-09-25T13:37:15.677Z,9.80
2022-09-25T13:40:08.792Z,7.80
2022-09-25T13:42:40.117Z,7.97
2022-09-25T13:45:33.290Z,7.40
2022-09-25T13:48:12.529Z,9.13
2022-09-25T13:50:45.379Z,7.03
2022-09-25T13:53:21.660Z,6.40
2022-09-25T13:55:55.167Z,8.63
2022-09-25T13:58:25.780Z,11.90
2022-09-25T14:00:58.773Z,9.32
2022-09-25T14:03:44.089Z,10.07
2022-09-25T14:06:17.570Z,9.73
2022-09-25T14:08:45.861Z,8.97
2022-09-25T14:11:17.162Z,8.57
2022-09-25T14:13:46.728Z,8.57
2022-09-25T14:16:26.118Z,8.80
2022-09-25T14:18:55.357Z,8.80
2022-09-25T14:21:23.230Z,11.43
2022-09-25T14:23:53.488Z,7.53
2022-09-25T14:26:24.863Z,9.50
2022-09-25T14:28:54.359Z,8.85
2022-09-25T14:31:31.204Z,7.40
2022-09-25T14:34:20.535Z,8.05
2022-09-25T14:37:17.115Z,7.68
2022-09-25T14:39:50.858Z,7.85
2022-09-25T14:42:52.231Z,8.20
2022-09-25T14:45:31.988Z,7.10
2022-09-25T14:48:00.761Z,8.20
2022-09-25T14:50:38.576Z,6.75
2022-09-25T14:53:12.961Z,8.27
2022-09-25T14:55:46.358Z,9.70
2022-09-25T14:58:21.904Z,9.35
2022-09-25T15:00:55.622Z,15.02
2022-09-25T15:03:31.185Z,13.98
2022-09-25T15:06:02.054Z,9.45
2022-09-25T15:08:38.981Z,10.18
2022-09-25T15:11:12.693Z,10.20
2022-09-25T15:13:40.688Z,9.07
2022-09-25T15:16:33.478Z,11.95
2022-09-25T15:19:02.454Z,13.07
2022-09-25T15:21:31.902Z,16.52
2022-09-25T15:24:07.332Z,14.75
2022-09-25T15:26:39.370Z,14.10
2022-09-25T15:29:18.240Z,16.45
2022-09-25T15:31:50.788Z,11.73
2022-09-25T15:34:24.348Z,15.80
2022-09-25T15:36:52.553Z,12.98
2022-09-25T15:39:25.517Z,13.88
2022-09-25T15:41:53.374Z,17.23
2022-09-25T15:44:25.428Z,14.05
2022-09-25T15:46:58.972Z,13.55
2022-09-25T15:49:33.586Z,12.63
2022-09-25T15:54:36.264Z,15.77
2022-09-25T15:57:07.051Z,12.80
2022-09-25T15:59:58.796Z,13.75
2022-09-25T16:02:51.227Z,11.65
2022-09-25T16:05:27.466Z,12.77
2022-09-25T16:08:15.528Z,11.77
2022-09-25T16:10:49.695Z,9.98
2022-09-25T16:13:23.336Z,9.32
2022-09-25T16:15:52.492Z,12.68
2022-09-25T16:18:46.498Z,11.45
2022-09-25T16:21:15.868Z,15.30
2022-09-25T16:23:44.238Z,13.48
2022-09-25T16:26:22.271Z,12.63
2022-09-25T16:29:11.525Z,15.38
2022-09-25T16:31:40.345Z,18.10
2022-09-25T16:34:17.945Z,15.73
2022-09-25T16:36:46.083Z,13.40
2022-09-25T16:39:23.128Z,20.37
2022-09-25T16:41:51.211Z,20.67
2022-09-25T16:44:21.930Z,18.92
2022-09-25T16:46:52.594Z,21.75
2022-09-25T16:49:20.570Z,31.67
2022-09-25T16:51:49.245Z,42.72
2022-09-25T16:54:18.473Z,38.72
2022-09-25T16:56:48.156Z,35.50
2022-09-25T16:59:24.481Z,32.22
2022-09-25T17:02:00.946Z,33.00
2022-09-25T17:04:31.175Z,24.30
2022-09-25T17:06:59.040Z,20.67
2022-09-25T17:09:28.664Z,21.30
2022-09-25T17:12:01.079Z,17.35
2022-09-25T17:14:28.990Z,16.15
2022-09-25T17:16:57.009Z,15.50
2022-09-25T17:19:24.706Z,15.98
2022-09-25T17:21:53.846Z,16.58
2022-09-25T17:24:23.905Z,16.37
2022-09-25T17:26:52.146Z,19.92
2022-09-25T17:29:20.602Z,14.43
2022-09-25T17:31:48.224Z,17.30
2022-09-25T17:34:25.127Z,20.12
2022-09-25T17:36:52.729Z,18.80
2022-09-25T17:39:21.191Z,19.12
2022-09-25T17:41:48.595Z,17.77
2022-09-25T17:44:22.885Z,17.00
2022-09-25T17:46:55.764Z,20.10
2022-09-25T17:49:24.060Z,15.98
2022-09-25T17:51:52.091Z,19.45
2022-09-25T17:54:20.426Z,18.73
2022-09-25T17:56:48.346Z,18.45
2022-09-25T17:59:16.568Z,20.08
2022-09-25T18:01:44.357Z,18.02
2022-09-25T18:04:23.896Z,16.85
2022-09-25T18:06:52.078Z,17.60
2022-09-25T18:09:20.149Z,17.67
2022-09-25T18:11:48.088Z,18.40
2022-09-25T18:14:16.130Z,18.62
2022-09-25T18:16:45.063Z,16.92
2022-09-25T18:19:36.234Z,16.62
2022-09-25T18:22:21.920Z,19.05
2022-09-25T18:24:57.053Z,18.85
2022-09-25T18:27:30.715Z,20.15
2022-09-25T18:29:58.532Z,19.60
2022-09-25T18:32:27.026Z,20.85
2022-09-25T18:34:54.732Z,17.83
2022-09-25T18:37:22.666Z,19.87
2022-09-25T18:39:50.875Z,17.70
2022-09-25T18:42:18.655Z,17.42
2022-09-25T18:44:46.374Z,17.33
2022-09-25T18:47:14.310Z,19.27
2022-09-25T18:49:42.724Z,20.45
2022-09-25T18:52:11.620Z,16.98
2022-09-25T18:54:42.168Z,18.23
2022-09-25T18:57:11.590Z,17.55
2022-09-25T18:59:40.558Z,20.48
2022-09-25T19:02:21.735Z,21.08
2022-09-25T19:04:51.776Z,17.92
2022-09-25T19:07:19.745Z,17.65
2022-09-25T19:09:47.295Z,19.48
2022-09-25T19:12:17.166Z,19.80
2022-09-25T19:14:45.416Z,18.33
2022-09-25T19:17:14.951Z,18.77
2022-09-25T19:19:43.936Z,18.85
2022-09-25T19:22:17.908Z,19.00
2022-09-25T19:24:46.786Z,18.23
2022-09-25T19:27:18.005Z,20.55
2022-09-25T19:29:46.144Z,18.60
2022-09-25T19:32:15.548Z,18.92
2022-09-25T19:34:42.965Z,18.52
2022-09-25T19:37:11.267Z,21.50
2022-09-25T19:39:57.511Z,23.50
2022-09-25T19:42:28.782Z,23.55
2022-09-25T19:44:56.494Z,22.10
2022-09-25T19:47:24.303Z,34.10
2022-09-25T19:49:52.308Z,29.63
2022-09-25T19:52:22.267Z,48.95
2022-09-25T19:54:49.849Z,41.50
2022-09-25T19:57:18.268Z,37.15
2022-09-25T19:59:45.945Z,29.45
2022-09-25T20:02:13.877Z,21.30
2022-09-25T20:04:44.042Z,19.75
2022-09-25T20:07:16.105Z,19.80
2022-09-25T20:09:44.691Z,21.05
2022-09-25T20:12:12.341Z,21.87
2022-09-25T20:14:40.030Z,23.52
2022-09-25T20:17:10.189Z,20.45
2022-09-25T20:19:37.836Z,20.33
2022-09-25T20:22:05.879Z,21.10
2022-09-25T20:24:33.816Z,20.37
2022-09-25T20:27:01.418Z,22.60
2022-09-25T20:29:29.192Z,19.12
2022-09-25T20:31:57.048Z,20.15
2022-09-25T20:34:24.471Z,18.12
2022-09-25T20:36:53.077Z,18.98
2022-09-25T20:39:22.397Z,20.67
2022-09-25T20:41:50.614Z,22.67
2022-09-25T20:44:18.585Z,20.10
2022-09-25T20:46:46.615Z,20.10
2022-09-25T20:49:14.822Z,17.87
2022-09-25T20:51:46.441Z,20.08
2022-09-25T20:54:14.956Z,23.60
2022-09-25T20:56:44.050Z,25.02
2022-09-25T20:59:12.327Z,22.95
2022-09-25T21:01:41.501Z,22.98
2022-09-25T21:04:10.379Z,23.25
2022-09-25T21:06:41.241Z,25.75
2022-09-25T21:09:15.949Z,32.38
2022-09-25T21:11:43.643Z,24.48
2022-09-25T21:14:16.298Z,25.48
2022-09-25T21:16:43.684Z,19.92
2022-09-25T21:19:13.181Z,19.77
2022-09-25T21:21:41.052Z,22.33
2022-09-25T21:24:10.242Z,19.70
2022-09-25T21:26:37.990Z,22.13
2022-09-25T21:29:06.037Z,21.02
2022-09-25T21:31:45.195Z,20.95
2022-09-25T21:34:16.394Z,21.40
2022-09-25T21:36:45.622Z,22.90
2022-09-25T21:39:13.861Z,21.65
2022-09-25T21:41:41.791Z,22.17
2022-09-25T21:44:14.199Z,21.52
2022-09-25T21:46:42.356Z,23.40
2022-09-25T21:49:16.155Z,23.45
2022-09-25T21:51:45.590Z,22.55
2022-09-25T21:54:14.455Z,20.65
2022-09-25T21:56:41.934Z,21.45
2022-09-25T21:59:09.875Z,23.77
2022-09-25T22:01:38.725Z,20.60
2022-09-25T22:04:08.249Z,21.15
2022-09-25T22:06:38.792Z,20.37
2022-09-25T22:09:09.668Z,22.35
2022-09-25T22:11:38.090Z,22.20
2022-09-25T22:14:06.308Z,21.02
2022-09-25T22:16:36.290Z,23.80
2022-09-25T22:19:17.511Z,27.20
2022-09-25T22:21:46.324Z,22.10
2022-09-25T22:24:14.829Z,23.73
2022-09-25T22:26:45.513Z,23.77
2022-09-25T22:29:13.606Z,24.85
2022-09-25T22:31:44.602Z,21.33
2022-09-25T22:34:16.659Z,24.83
2022-09-25T22:36:44.940Z,20.12
2022-09-25T22:39:14.583Z,21.87
2022-09-25T22:41:42.325Z,18.92
2022-09-25T22:44:10.034Z,19.90
2022-09-25T22:46:37.461Z,22.23
2022-09-25T22:49:04.849Z,21.05
2022-09-25T22:51:32.459Z,22.30
2022-09-25T22:53:59.827Z,21.92
2022-09-25T22:56:29.398Z,22.80
2022-09-25T22:58:59.716Z,22.73
2022-09-25T23:01:33.611Z,23.02
2022-09-25T23:04:04.304Z,22.50
2022-09-25T23:06:33.117Z,23.12
2022-09-25T23:09:03.928Z,22.95
2022-09-25T23:11:31.589Z,21.35
2022-09-25T23:14:01.911Z,24.12
2022-09-25T23:16:31.317Z,25.83
2022-09-25T23:19:00.036Z,22.98
2022-09-25T23:21:29.184Z,23.95
2022-09-25T23:24:01.744Z,23.40
2022-09-25T23:26:29.770Z,23.17
2022-09-25T23:28:58.486Z,27.30
2022-09-25T23:31:26.157Z,25.00
2022-09-25T23:33:53.571Z,24.60
2022-09-25T23:36:22.867Z,22.33
2022-09-25T23:38:51.937Z,21.55
2022-09-25T23:41:26.731Z,23.77
2022-09-25T23:43:55.529Z,23.48
2022-09-25T23:46:25.472Z,22.00
2022-09-25T23:48:53.874Z,21.67
2022-09-25T23:51:26.165Z,20.52
2022-09-25T23:53:55.178Z,24.00
2022-09-25T23:56:25.409Z,23.48
2022-09-25T23:58:53.629Z,21.52
